Time;durP1;ratioP1;P1;durP2;ratioP2;P2;SDS_P1;SDS_P2;PMS_P1;PMS_P2;Temp;Humidity;BMP_temperature;BMP_pressure;BME280_temperature;BME280_humidity;BME280_pressure;Samples;Min_cycle;Max_cycle;Signal;HPM_P1;HPM_P2
2023/12/25 00:02:42;;;;;;;1.47;0.87;;;13.20;99.90;;;;;;10449186;28;20715;-80
2023/12/25 00:07:44;;;;;;;3.27;1.13;;;13.70;99.90;;;;;;10448836;28;20648;-80
2023/12/25 00:12:47;;;;;;;2.47;1.27;;;14.10;99.90;;;;;;10447530;28;20234;-80
2023/12/25 00:17:49;;;;;;;2.23;1.13;;;14.40;99.90;;;;;;10472769;28;20284;-81
2023/12/25 00:22:52;;;;;;;2.57;1.40;;;14.40;99.90;;;;;;10483432;28;20250;-80
2023/12/25 00:27:55;;;;;;;3.93;2.03;;;14.80;99.90;;;;;;10445198;28;20319;-80
2023/12/25 00:32:57;;;;;;;9.77;4.93;;;14.70;99.90;;;;;;10456421;28;20775;-80
2023/12/25 00:38:00;;;;;;;8.23;4.23;;;14.70;99.90;;;;;;10460997;28;20687;-80
2023/12/25 00:43:03;;;;;;;7.27;2.80;;;14.50;99.90;;;;;;10449291;28;20262;-80
2023/12/25 00:48:06;;;;;;;4.97;2.63;;;14.40;99.90;;;;;;10454645;28;20204;-80
2023/12/25 00:53:08;;;;;;;4.10;2.23;;;14.60;99.90;;;;;;10450299;28;20239;-80
2023/12/25 00:58:11;;;;;;;6.33;3.53;;;14.70;99.90;;;;;;10423003;28;20361;-80
2023/12/25 01:03:14;;;;;;;3.77;2.47;;;15.00;99.90;;;;;;10459612;28;20242;-81
2023/12/25 01:08:16;;;;;;;3.83;2.33;;;14.80;99.90;;;;;;10455649;28;20231;-81
2023/12/25 01:13:19;;;;;;;4.13;2.50;;;14.50;99.90;;;;;;10452107;28;20291;-81
2023/12/25 01:18:22;;;;;;;4.77;2.93;;;14.20;99.90;;;;;;10463996;28;20231;-81
2023/12/25 01:23:24;;;;;;;7.40;3.00;;;14.60;99.90;;;;;;10453233;28;20250;-81
2023/12/25 01:28:27;;;;;;;4.27;2.50;;;14.40;99.90;;;;;;10455583;28;20259;-81
2023/12/25 01:33:30;;;;;;;3.53;2.20;;;14.50;99.90;;;;;;10453645;28;20622;-81
2023/12/25 01:38:32;;;;;;;6.97;2.30;;;14.50;99.90;;;;;;10472937;28;20287;-81
2023/12/25 01:43:35;;;;;;;1.90;1.23;;;14.50;99.90;;;;;;10467746;28;20241;-80
2023/12/25 01:48:39;;;;;;;5.03;2.90;;;14.70;99.90;;;;;;10470010;28;20278;-81
2023/12/25 01:53:42;;;;;;;3.43;1.30;;;14.70;99.90;;;;;;10476740;28;20226;-81
2023/12/25 01:58:44;;;;;;;3.43;2.00;;;14.80;99.90;;;;;;10461686;28;20230;-81
2023/12/25 02:03:47;;;;;;;4.70;1.57;;;14.80;99.90;;;;;;10473182;28;20944;-81
2023/12/25 02:08:50;;;;;;;3.63;2.13;;;14.90;99.90;;;;;;10469294;28;20859;-80
2023/12/25 02:13:56;;;;;;;3.60;2.40;;;14.60;99.90;;;;;;10470812;28;20275;-81
2023/12/25 02:19:00;;;;;;;3.40;1.90;;;14.70;99.90;;;;;;10474364;28;20232;-81
2023/12/25 02:24:08;;;;;;;3.73;1.63;;;14.70;99.90;;;;;;10455436;28;20258;-80
2023/12/25 02:29:10;;;;;;;3.37;1.77;;;14.60;99.90;;;;;;10458879;28;20237;-81
2023/12/25 02:34:13;;;;;;;2.43;1.40;;;14.70;99.90;;;;;;10464589;28;20231;-81
2023/12/25 02:39:17;;;;;;;3.17;2.57;;;14.80;99.90;;;;;;10464666;28;20233;-81
2023/12/25 02:44:19;;;;;;;1.17;1.07;;;14.70;99.90;;;;;;10477107;28;20276;-81
2023/12/25 02:49:22;;;;;;;5.10;1.97;;;14.60;99.90;;;;;;10475396;28;20234;-80
2023/12/25 02:54:25;;;;;;;2.70;1.33;;;14.80;99.90;;;;;;10468401;28;20234;-81
2023/12/25 02:59:27;;;;;;;4.47;2.00;;;14.90;99.90;;;;;;10471048;28;20218;-81
2023/12/25 03:04:30;;;;;;;3.30;1.37;;;14.70;99.90;;;;;;10460438;28;20246;-80
2023/12/25 03:09:32;;;;;;;2.70;1.70;;;15.00;99.90;;;;;;10483158;28;20685;-81
2023/12/25 03:14:35;;;;;;;1.50;1.13;;;14.90;99.90;;;;;;10473858;28;20292;-81
2023/12/25 03:19:37;;;;;;;4.97;1.60;;;14.90;99.90;;;;;;10471899;28;20231;-81
2023/12/25 03:24:39;;;;;;;1.83;0.77;;;14.90;99.90;;;;;;10468891;28;20718;-81
2023/12/25 03:29:42;;;;;;;2.87;1.53;;;15.00;99.90;;;;;;10479934;28;20215;-81
2023/12/25 03:34:47;;;;;;;1.70;1.07;;;15.00;99.90;;;;;;10468581;28;20234;-81
2023/12/25 03:39:51;;;;;;;1.73;1.10;;;15.20;99.90;;;;;;10477800;28;20284;-81
2023/12/25 03:44:53;;;;;;;1.60;1.00;;;14.80;99.90;;;;;;10475641;28;20718;-81
2023/12/25 03:49:56;;;;;;;1.83;1.23;;;14.90;99.90;;;;;;10469909;28;20281;-81
2023/12/25 03:54:58;;;;;;;3.63;1.37;;;14.90;99.90;;;;;;10468038;28;20226;-81
2023/12/25 04:00:03;;;;;;;3.27;0.70;;;14.80;99.90;;;;;;10470621;28;20667;-81
2023/12/25 04:05:15;;;;;;;1.43;0.73;;;14.60;99.90;;;;;;10478218;28;20253;-81
2023/12/25 04:10:17;;;;;;;1.60;1.03;;;14.80;99.90;;;;;;10467778;28;20231;-81
2023/12/25 04:15:20;;;;;;;6.57;1.13;;;14.80;99.90;;;;;;10471443;28;20234;-81
2023/12/25 04:20:22;;;;;;;4.40;0.90;;;14.70;99.90;;;;;;10458254;28;20247;-81
2023/12/25 04:25:25;;;;;;;1.43;1.30;;;14.60;99.90;;;;;;10472987;28;20303;-81
2023/12/25 04:30:27;;;;;;;1.40;0.67;;;14.70;99.90;;;;;;10462499;28;20222;-81
2023/12/25 04:35:31;;;;;;;2.00;0.80;;;14.70;99.90;;;;;;10464413;28;20758;-81
2023/12/25 04:40:33;;;;;;;1.60;0.87;;;14.90;99.90;;;;;;10466619;28;20276;-81
2023/12/25 04:45:35;;;;;;;1.17;0.57;;;14.90;99.90;;;;;;10466075;28;20250;-81
2023/12/25 04:50:38;;;;;;;0.80;0.60;;;14.60;99.90;;;;;;10466807;28;20292;-81
2023/12/25 04:55:41;;;;;;;2.47;1.10;;;14.50;99.90;;;;;;10461060;28;20227;-81
2023/12/25 05:00:45;;;;;;;0.90;0.67;;;14.60;99.90;;;;;;10473846;28;20233;-81
2023/12/25 05:05:48;;;;;;;1.77;1.00;;;14.50;99.90;;;;;;10467720;28;20254;-81
2023/12/25 05:10:51;;;;;;;2.90;0.93;;;14.50;99.90;;;;;;10456095;28;20672;-81
2023/12/25 05:15:55;;;;;;;1.73;0.90;;;14.90;99.90;;;;;;10451648;28;20316;-81
2023/12/25 05:20:59;;;;;;;1.07;0.67;;;14.70;99.90;;;;;;10471314;28;20233;-81
2023/12/25 05:26:01;;;;;;;1.03;0.57;;;14.60;99.90;;;;;;10469932;28;20258;-81
2023/12/25 05:31:05;;;;;;;2.97;1.07;;;14.60;99.90;;;;;;10471392;28;20222;-81
2023/12/25 05:36:07;;;;;;;1.70;1.00;;;14.70;99.90;;;;;;10461313;28;20282;-81
2023/12/25 05:41:10;;;;;;;1.10;0.50;;;14.60;99.90;;;;;;10465701;28;20231;-81
2023/12/25 05:46:12;;;;;;;1.17;1.07;;;14.50;99.90;;;;;;10459292;28;20722;-81
2023/12/25 05:51:15;;;;;;;1.80;0.70;;;14.60;99.90;;;;;;10461888;28;20252;-81
2023/12/25 05:56:17;;;;;;;1.37;0.90;;;14.80;99.90;;;;;;10464075;28;20754;-81
2023/12/25 06:01:22;;;;;;;2.43;0.93;;;14.90;99.90;;;;;;10462167;28;20190;-82
2023/12/25 06:06:24;;;;;;;0.83;0.70;;;14.90;99.90;;;;;;10449515;28;20658;-81
2023/12/25 06:11:27;;;;;;;1.67;0.70;;;14.60;99.90;;;;;;10447992;28;20230;-81
2023/12/25 06:16:29;;;;;;;1.00;0.60;;;14.70;99.90;;;;;;10448490;28;20297;-81
2023/12/25 06:21:32;;;;;;;1.57;0.90;;;14.70;99.90;;;;;;10448592;28;20253;-81
2023/12/25 06:26:34;;;;;;;1.30;0.70;;;14.40;99.90;;;;;;10447381;28;20259;-81
2023/12/25 06:31:37;;;;;;;1.33;0.60;;;14.50;99.90;;;;;;10455152;28;20269;-81
2023/12/25 06:36:40;;;;;;;0.63;0.30;;;14.80;99.90;;;;;;10455864;28;20273;-81
2023/12/25 06:41:42;;;;;;;1.40;0.80;;;14.50;99.90;;;;;;10456310;28;20785;-81
2023/12/25 06:46:45;;;;;;;3.50;1.10;;;14.70;99.90;;;;;;10435297;28;20231;-81
2023/12/25 06:51:47;;;;;;;2.70;0.70;;;14.30;99.90;;;;;;10414485;28;20897;-81
2023/12/25 06:56:50;;;;;;;0.40;0.30;;;14.40;99.90;;;;;;10442370;28;20195;-81
2023/12/25 07:01:52;;;;;;;1.97;0.97;;;14.30;99.90;;;;;;10455798;28;20265;-80
2023/12/25 07:06:54;;;;;;;0.80;0.57;;;14.40;99.90;;;;;;10454351;28;20276;-80
2023/12/25 07:11:57;;;;;;;1.10;0.37;;;14.40;99.90;;;;;;10455206;28;20234;-81
2023/12/25 07:17:00;;;;;;;2.10;0.60;;;14.40;99.90;;;;;;10454598;28;20249;-80
2023/12/25 07:22:02;;;;;;;1.03;0.80;;;14.70;99.90;;;;;;10414007;28;20285;-81
2023/12/25 07:27:05;;;;;;;1.60;0.80;;;14.40;99.90;;;;;;10413020;28;20267;-81
2023/12/25 07:32:07;;;;;;;0.93;0.40;;;14.60;99.90;;;;;;10412983;28;20620;-81
2023/12/25 07:37:10;;;;;;;2.23;0.30;;;14.50;99.90;;;;;;10436518;28;20234;-80
2023/12/25 07:42:13;;;;;;;1.60;0.57;;;15.00;99.90;;;;;;10453581;28;20254;-81
2023/12/25 07:47:15;;;;;;;0.83;0.33;;;15.00;99.90;;;;;;10453934;28;20262;-81
2023/12/25 07:52:18;;;;;;;1.23;0.70;;;14.60;99.90;;;;;;10453741;28;20284;-81
2023/12/25 07:57:21;;;;;;;2.60;0.90;;;14.50;99.90;;;;;;10422596;28;20239;-81
2023/12/25 08:02:24;;;;;;;1.10;0.50;;;14.50;99.90;;;;;;10411807;28;20259;-80
2023/12/25 08:07:26;;;;;;;4.70;1.30;;;14.70;99.90;;;;;;10411379;28;20281;-81
2023/12/25 08:12:29;;;;;;;0.90;0.60;;;14.70;99.90;;;;;;10410995;28;20235;-80
2023/12/25 08:17:32;;;;;;;1.40;0.57;;;14.70;99.90;;;;;;10411078;28;20243;-81
2023/12/25 08:22:35;;;;;;;1.40;0.70;;;14.60;99.90;;;;;;10444143;28;20327;-80
2023/12/25 08:27:37;;;;;;;0.20;0.20;;;14.80;99.90;;;;;;10423981;28;20294;-80
2023/12/25 08:32:39;;;;;;;1.17;0.33;;;14.70;99.90;;;;;;10411415;28;20227;-80
2023/12/25 08:37:42;;;;;;;1.10;0.60;;;15.00;99.90;;;;;;10451348;28;20824;-81
2023/12/25 08:42:45;;;;;;;2.90;0.63;;;15.30;99.90;;;;;;10449673;28;20869;-81
2023/12/25 08:47:51;;;;;;;0.67;0.40;;;15.20;99.90;;;;;;10450314;28;20268;-80
2023/12/25 08:52:55;;;;;;;1.30;0.50;;;15.40;99.90;;;;;;10433375;28;20230;-80
2023/12/25 08:57:57;;;;;;;2.47;1.00;;;15.40;99.90;;;;;;10432316;28;20754;-80
2023/12/25 09:03:00;;;;;;;0.20;0.20;;;15.30;99.90;;;;;;10409006;28;20251;-81
2023/12/25 09:08:02;;;;;;;4.53;0.77;;;15.10;99.90;;;;;;10409236;28;20616;-81
2023/12/25 09:13:05;;;;;;;1.83;0.30;;;15.10;99.90;;;;;;10409287;28;20231;-81
2023/12/25 09:18:07;;;;;;;0.50;0.50;;;15.30;99.90;;;;;;10409027;28;20238;-81
2023/12/25 09:23:10;;;;;;;1.07;0.63;;;15.20;99.90;;;;;;10408964;28;20251;-81
2023/12/25 09:28:12;;;;;;;1.17;0.40;;;15.00;99.90;;;;;;10443321;28;20780;-80
2023/12/25 09:33:16;;;;;;;0.77;0.50;;;15.20;99.90;;;;;;10449280;28;20230;-80
2023/12/25 09:38:23;;;;;;;1.77;0.90;;;15.60;99.90;;;;;;10456603;28;20223;-80
2023/12/25 09:43:27;;;;;;;0.60;0.50;;;15.30;99.90;;;;;;10489960;28;20303;-80
2023/12/25 09:48:30;;;;;;;1.80;0.60;;;15.50;99.90;;;;;;10447795;28;20288;-80
2023/12/25 09:53:34;;;;;;;1.10;0.60;;;15.40;99.90;;;;;;10473219;28;20787;-80
2023/12/25 09:58:38;;;;;;;2.13;0.60;;;15.50;99.90;;;;;;10439767;28;20242;-80
2023/12/25 10:03:44;;;;;;;1.33;0.40;;;15.60;99.90;;;;;;10452527;28;20336;-80
2023/12/25 10:08:47;;;;;;;0.97;0.50;;;15.50;99.90;;;;;;10422360;28;20223;-80
2023/12/25 10:13:49;;;;;;;0.97;0.50;;;15.40;99.90;;;;;;10457886;28;20260;-80
2023/12/25 10:18:52;;;;;;;2.67;0.43;;;15.40;99.90;;;;;;10456556;28;20239;-80
2023/12/25 10:23:55;;;;;;;0.63;0.50;;;15.40;99.90;;;;;;10454157;28;20323;-80
2023/12/25 10:29:11;;;;;;;3.53;0.90;;;15.30;99.90;;;;;;10413931;28;20297;-80
2023/12/25 10:34:19;;;;;;;0.40;0.40;;;15.40;99.90;;;;;;10441139;28;20230;-80
2023/12/25 10:39:32;;;;;;;1.63;0.63;;;15.20;99.90;;;;;;10455475;28;20227;-79
2023/12/25 10:44:36;;;;;;;2.50;0.47;;;15.40;99.90;;;;;;10459657;28;20250;-80
2023/12/25 10:49:41;;;;;;;14.00;1.47;;;15.60;99.90;;;;;;10455819;28;20243;-80
2023/12/25 10:54:46;;;;;;;3.10;0.50;;;15.80;99.90;;;;;;10453211;28;20234;-80
2023/12/25 10:59:49;;;;;;;4.30;0.67;;;15.80;99.90;;;;;;10470488;28;20223;-80
2023/12/25 11:04:52;;;;;;;0.80;0.60;;;16.00;99.90;;;;;;10482322;28;20242;-80
2023/12/25 11:09:55;;;;;;;2.20;0.80;;;15.90;99.90;;;;;;10463751;28;20732;-81
2023/12/25 11:14:58;;;;;;;1.03;0.57;;;15.70;99.90;;;;;;10495950;28;20248;-80
2023/12/25 11:20:04;;;;;;;5.67;0.80;;;15.80;99.90;;;;;;10487431;28;20279;-81
2023/12/25 11:25:14;;;;;;;2.13;0.63;;;15.80;99.90;;;;;;10114004;28;10000583;-80
2023/12/25 11:30:19;;;;;;;1.77;0.77;;;15.80;99.90;;;;;;10472996;28;20279;-80
2023/12/25 11:35:27;;;;;;;1.40;0.80;;;15.50;99.90;;;;;;10491650;28;20233;-80
2023/12/25 11:40:39;;;;;;;2.77;0.83;;;15.50;99.90;;;;;;10478576;28;20247;-80
2023/12/25 11:45:52;;;;;;;4.37;1.00;;;15.60;99.90;;;;;;10421049;28;20254;-80
2023/12/25 11:51:01;;;;;;;1.93;1.00;;;15.50;99.90;;;;;;10456875;28;20279;-81
2023/12/25 11:56:08;;;;;;;2.77;0.90;;;15.50;99.90;;;;;;10474025;28;20835;-81
2023/12/25 12:01:17;;;;;;;2.33;0.57;;;15.70;99.90;;;;;;10489032;28;20227;-80
2023/12/25 12:06:20;;;;;;;2.50;1.10;;;16.00;99.90;;;;;;10455448;28;20319;-79
2023/12/25 12:11:24;;;;;;;0.97;0.47;;;15.80;99.90;;;;;;10489036;28;20230;-80
2023/12/25 12:16:27;;;;;;;2.07;0.50;;;15.80;99.90;;;;;;10465692;28;20236;-79
2023/12/25 12:21:30;;;;;;;0.87;0.50;;;15.70;99.90;;;;;;10467009;28;20234;-81
2023/12/25 12:26:33;;;;;;;0.17;0.13;;;15.60;99.90;;;;;;10462601;28;20742;-79
2023/12/25 12:31:37;;;;;;;2.53;0.87;;;15.70;99.90;;;;;;10458031;28;20601;-80
2023/12/25 12:36:40;;;;;;;6.70;1.33;;;16.00;99.90;;;;;;10428636;28;20235;-79
2023/12/25 12:41:42;;;;;;;5.20;1.07;;;14.30;99.90;;;;;;10444755;28;20594;-79
2023/12/25 12:46:45;;;;;;;4.73;1.70;;;13.60;99.90;;;;;;10452019;28;20258;-79
2023/12/25 12:51:48;;;;;;;1.73;0.80;;;13.90;99.90;;;;;;10450501;28;20227;-80
2023/12/25 12:56:50;;;;;;;7.10;1.20;;;14.10;99.90;;;;;;10450838;28;20234;-80
2023/12/25 13:01:53;;;;;;;3.97;1.20;;;14.60;99.90;;;;;;10450108;28;20288;-81
2023/12/25 13:06:55;;;;;;;2.30;1.03;;;15.00;99.90;;;;;;10449560;28;20254;-80
2023/12/25 13:11:58;;;;;;;2.27;1.00;;;15.10;99.90;;;;;;10449235;28;20249;-80
2023/12/25 13:17:00;;;;;;;1.17;0.60;;;15.10;99.90;;;;;;10450558;28;20292;-80
2023/12/25 13:22:05;;;;;;;2.97;0.83;;;15.20;99.90;;;;;;10449090;28;20230;-81
2023/12/25 13:27:08;;;;;;;1.37;0.60;;;15.20;99.90;;;;;;10449450;28;20846;-81
2023/12/25 13:32:10;;;;;;;1.43;0.53;;;15.00;99.90;;;;;;10448361;28;20239;-81
2023/12/25 13:37:13;;;;;;;1.73;1.17;;;15.20;99.90;;;;;;10449416;28;20249;-80
2023/12/25 13:42:15;;;;;;;3.93;1.17;;;14.80;99.90;;;;;;10449747;28;20234;-80
2023/12/25 13:47:18;;;;;;;2.43;1.07;;;15.30;99.90;;;;;;10447788;28;20693;-85
2023/12/25 13:52:20;;;;;;;1.67;0.50;;;15.30;99.90;;;;;;10449326;28;20230;-80
2023/12/25 13:57:23;;;;;;;5.73;0.97;;;15.10;99.90;;;;;;10449501;28;20234;-80
2023/12/25 14:02:25;;;;;;;2.80;1.40;;;15.20;99.90;;;;;;10449289;28;20242;-80
2023/12/25 14:07:28;;;;;;;2.17;0.83;;;15.30;99.90;;;;;;10447824;28;20323;-78
2023/12/25 14:12:30;;;;;;;1.77;0.50;;;15.30;99.90;;;;;;10447728;28;20622;-78
2023/12/25 14:17:33;;;;;;;0.77;0.40;;;15.30;99.90;;;;;;10449096;28;20292;-80
2023/12/25 14:22:35;;;;;;;1.53;0.40;;;15.20;99.90;;;;;;10448011;28;20226;-80
2023/12/25 14:27:38;;;;;;;3.90;0.93;;;14.70;99.90;;;;;;10449096;28;20263;-80
2023/12/25 14:32:42;;;;;;;2.27;0.67;;;15.20;99.90;;;;;;10449038;28;20269;-79
2023/12/25 14:37:45;;;;;;;6.03;1.27;;;15.20;99.90;;;;;;10448708;28;20620;-78
2023/12/25 14:42:48;;;;;;;2.20;0.80;;;15.20;99.90;;;;;;10448521;28;20243;-79
2023/12/25 14:47:50;;;;;;;2.70;1.00;;;15.10;99.90;;;;;;10448952;28;20242;-78
2023/12/25 14:52:56;;;;;;;2.00;0.87;;;15.10;99.90;;;;;;10448271;28;20256;-79
2023/12/25 14:58:02;;;;;;;2.93;1.30;;;14.40;99.90;;;;;;10460466;28;20231;-80
2023/12/25 15:03:18;;;;;;;4.80;0.50;;;14.40;99.90;;;;;;10460401;28;20252;-79
2023/12/25 15:08:21;;;;;;;3.67;0.60;;;14.40;99.90;;;;;;10454151;28;20349;-79
2023/12/25 15:13:24;;;;;;;2.90;1.00;;;14.30;99.90;;;;;;10454787;28;20219;-80
2023/12/25 15:18:26;;;;;;;2.50;1.00;;;14.30;99.90;;;;;;10462473;28;20227;-80
2023/12/25 15:23:29;;;;;;;4.53;1.07;;;14.50;99.90;;;;;;10413530;28;21037;-79
2023/12/25 15:28:32;;;;;;;7.90;0.87;;;14.30;99.90;;;;;;10421129;28;20271;-79
2023/12/25 15:33:34;;;;;;;3.17;0.73;;;14.40;99.90;;;;;;10452946;28;20261;-79
2023/12/25 15:38:39;;;;;;;2.60;0.70;;;14.50;99.90;;;;;;10472012;28;20291;-79
2023/12/25 15:43:43;;;;;;;2.37;0.70;;;14.40;99.90;;;;;;10468589;28;20230;-79
2023/12/25 15:48:45;;;;;;;2.50;0.70;;;14.70;99.90;;;;;;10437112;28;20621;-79
2023/12/25 15:53:48;;;;;;;1.37;1.03;;;14.60;99.90;;;;;;10453240;28;20234;-80
2023/12/25 15:58:51;;;;;;;6.17;1.00;;;14.60;99.90;;;;;;10450686;28;20227;-79
2023/12/25 16:03:53;;;;;;;3.50;1.03;;;14.80;99.90;;;;;;10452645;28;20272;-79
2023/12/25 16:08:56;;;;;;;6.50;0.97;;;14.70;99.90;;;;;;9754694;28;10000717;-80
2023/12/25 16:13:58;;;;;;;4.13;0.87;;;14.50;99.90;;;;;;10446749;28;20219;-80
2023/12/25 16:19:01;;;;;;;2.33;0.90;;;14.20;99.90;;;;;;10449960;28;20488;-80
2023/12/25 16:24:05;;;;;;;2.07;0.60;;;14.60;99.90;;;;;;10467078;28;20234;-80
2023/12/25 16:29:08;;;;;;;2.73;0.60;;;14.60;99.90;;;;;;10483944;28;20249;-80
2023/12/25 16:34:10;;;;;;;4.10;1.40;;;14.40;99.90;;;;;;10488688;28;20635;-79
2023/12/25 16:39:13;;;;;;;3.30;1.23;;;14.20;99.90;;;;;;10439602;28;20300;-80
2023/12/25 16:44:16;;;;;;;2.13;0.80;;;14.20;99.90;;;;;;10447449;28;20259;-80
2023/12/25 16:49:18;;;;;;;5.47;1.97;;;14.00;99.90;;;;;;10449476;28;20238;-80
2023/12/25 16:54:21;;;;;;;5.90;1.20;;;13.80;99.90;;;;;;10433868;28;20241;-80
2023/12/25 16:59:23;;;;;;;2.50;0.53;;;13.60;99.90;;;;;;10438754;28;20234;-80
2023/12/25 17:04:26;;;;;;;2.67;0.70;;;13.70;99.90;;;;;;10082273;28;10000834;-80
2023/12/25 17:09:29;;;;;;;2.73;0.80;;;14.20;99.90;;;;;;10444928;28;20305;-80
2023/12/25 17:14:36;;;;;;;2.27;1.00;;;14.10;99.90;;;;;;10446700;28;20226;-80
2023/12/25 17:19:38;;;;;;;3.07;1.30;;;14.10;99.90;;;;;;10470607;28;20230;-80
2023/12/25 17:24:42;;;;;;;3.43;0.53;;;14.00;99.90;;;;;;10487717;28;20293;-80
2023/12/25 17:29:44;;;;;;;6.37;2.33;;;14.10;99.90;;;;;;10486440;28;20640;-80
2023/12/25 17:34:47;;;;;;;5.07;2.13;;;13.70;99.90;;;;;;10469159;28;20243;-80
2023/12/25 17:39:50;;;;;;;6.60;2.50;;;13.60;99.90;;;;;;10445634;28;20824;-80
2023/12/25 17:44:54;;;;;;;5.67;1.80;;;13.40;99.90;;;;;;10439810;28;20320;-80
2023/12/25 17:49:57;;;;;;;7.47;1.00;;;13.60;99.90;;;;;;10440325;28;20723;-80
2023/12/25 17:54:59;;;;;;;4.20;1.20;;;13.40;99.90;;;;;;10445949;28;20231;-80
2023/12/25 18:00:05;;;;;;;2.83;1.33;;;13.20;99.90;;;;;;10471131;28;20235;-80
2023/12/25 18:05:13;;;;;;;5.90;2.27;;;13.40;99.90;;;;;;10446035;28;20262;-80
2023/12/25 18:10:15;;;;;;;4.17;1.67;;;13.00;99.90;;;;;;10449060;28;20222;-80
2023/12/25 18:15:18;;;;;;;4.07;1.77;;;12.90;99.90;;;;;;10479571;28;20222;-80
2023/12/25 18:20:20;;;;;;;4.73;0.90;;;12.50;99.90;;;;;;10445432;28;20243;-80
2023/12/25 18:25:23;;;;;;;14.00;3.30;;;12.80;99.90;;;;;;10464995;28;20315;-80
2023/12/25 18:30:25;;;;;;;7.47;3.30;;;11.10;99.90;;;;;;10438524;28;20227;-80
2023/12/25 18:35:28;;;;;;;8.30;3.63;;;11.30;99.90;;;;;;10414373;28;20628;-81
2023/12/25 18:40:32;;;;;;;14.23;6.07;;;11.70;99.90;;;;;;10454198;28;20269;-80
2023/12/25 18:45:34;;;;;;;10.73;4.23;;;11.40;99.90;;;;;;10426986;28;20238;-80
2023/12/25 18:50:37;;;;;;;10.10;3.73;;;11.20;99.90;;;;;;10491083;28;20626;-80
2023/12/25 18:55:39;;;;;;;9.33;5.23;;;11.30;99.90;;;;;;10448609;28;20230;-80
2023/12/25 19:00:42;;;;;;;10.03;3.90;;;11.50;99.90;;;;;;10443769;28;20261;-80
2023/12/25 19:05:44;;;;;;;7.47;3.40;;;11.70;99.90;;;;;;10455446;28;20284;-81
2023/12/25 19:10:47;;;;;;;11.73;3.67;;;12.00;99.90;;;;;;10454414;28;20297;-80
2023/12/25 19:15:50;;;;;;;7.30;3.80;;;12.10;99.90;;;;;;10453764;28;20227;-80
2023/12/25 19:20:53;;;;;;;9.03;3.80;;;12.00;99.90;;;;;;10453601;28;20246;-81
2023/12/25 19:25:55;;;;;;;7.57;3.50;;;11.80;99.90;;;;;;10454262;28;20324;-80
2023/12/25 19:30:58;;;;;;;9.10;3.87;;;11.20;99.90;;;;;;10454472;28;20234;-80
2023/12/25 19:36:00;;;;;;;9.10;4.30;;;11.00;99.90;;;;;;10453440;28;20238;-80
2023/12/25 19:41:03;;;;;;;8.30;3.97;;;10.90;99.90;;;;;;10452193;28;20234;-80
2023/12/25 19:46:06;;;;;;;7.03;4.03;;;10.70;99.90;;;;;;10442230;28;20316;-81
2023/12/25 19:51:08;;;;;;;9.13;4.47;;;10.50;99.90;;;;;;10445360;28;20235;-80
2023/12/25 19:56:12;;;;;;;8.63;4.00;;;10.30;99.90;;;;;;10453280;28;20284;-80
2023/12/25 20:01:15;;;;;;;9.23;4.60;;;10.30;99.90;;;;;;10452495;28;20226;-81
2023/12/25 20:06:17;;;;;;;7.57;3.80;;;10.30;99.90;;;;;;10450614;28;20250;-81
2023/12/25 20:11:20;;;;;;;10.53;4.77;;;10.00;99.90;;;;;;10444800;28;20243;-80
2023/12/25 20:16:23;;;;;;;13.77;7.47;;;9.90;99.90;;;;;;10447324;28;20230;-81
2023/12/25 20:21:26;;;;;;;15.30;8.47;;;9.60;99.90;;;;;;10483542;28;20265;-80
2023/12/25 20:26:30;;;;;;;17.63;11.20;;;9.40;99.90;;;;;;10449055;28;20634;-82
2023/12/25 20:31:33;;;;;;;17.50;9.43;;;9.20;99.90;;;;;;10432561;28;20698;-82
2023/12/25 20:36:35;;;;;;;27.97;15.73;;;9.20;99.90;;;;;;10440446;28;20676;-81
2023/12/25 20:41:38;;;;;;;19.17;10.63;;;9.10;99.90;;;;;;10489033;28;20257;-81
2023/12/25 20:46:40;;;;;;;10.90;6.37;;;8.70;99.90;;;;;;10446207;28;20266;-80
2023/12/25 20:51:43;;;;;;;13.13;5.17;;;8.50;99.90;;;;;;10450669;28;20695;-82
2023/12/25 20:56:45;;;;;;;8.47;4.07;;;8.20;99.90;;;;;;10448592;28;20226;-82
2023/12/25 21:01:48;;;;;;;8.43;4.47;;;8.70;99.90;;;;;;10457618;28;20292;-82
2023/12/25 21:06:54;;;;;;;9.03;4.07;;;9.00;99.90;;;;;;10457612;28;20281;-82
2023/12/25 21:11:57;;;;;;;6.00;3.30;;;9.30;99.90;;;;;;10450967;28;20234;-82
2023/12/25 21:16:59;;;;;;;10.73;4.27;;;9.60;99.90;;;;;;10451126;28;20253;-82
2023/12/25 21:22:02;;;;;;;8.37;3.87;;;9.60;99.90;;;;;;10470996;28;20280;-81
2023/12/25 21:27:04;;;;;;;8.73;5.00;;;10.00;99.90;;;;;;10415529;28;20255;-81
2023/12/25 21:32:11;;;;;;;10.97;4.23;;;10.50;99.90;;;;;;10423350;28;20226;-81
2023/12/25 21:37:14;;;;;;;8.47;3.20;;;10.50;99.90;;;;;;10456378;28;20250;-81
2023/12/25 21:42:16;;;;;;;11.43;5.30;;;10.70;99.90;;;;;;10449286;28;20250;-81
2023/12/25 21:47:19;;;;;;;10.60;5.07;;;10.80;99.90;;;;;;10448378;28;20376;-81
2023/12/25 21:52:22;;;;;;;7.80;3.30;;;10.90;99.90;;;;;;10449123;28;20633;-81
2023/12/25 21:57:24;;;;;;;5.07;2.70;;;10.80;99.90;;;;;;10448800;28;20207;-81
2023/12/25 22:02:27;;;;;;;7.03;3.80;;;10.60;99.90;;;;;;10456893;28;20272;-81
2023/12/25 22:07:30;;;;;;;6.27;2.97;;;10.40;99.90;;;;;;10457597;28;20257;-81
2023/12/25 22:12:34;;;;;;;10.77;2.90;;;10.30;99.90;;;;;;10458215;28;20691;-82
2023/12/25 22:17:36;;;;;;;8.57;3.20;;;10.40;99.90;;;;;;10457404;28;20238;-81
2023/12/25 22:22:39;;;;;;;10.67;4.63;;;9.90;99.90;;;;;;10482224;28;20264;-82
2023/12/25 22:27:43;;;;;;;14.27;4.60;;;8.90;99.90;;;;;;10498185;28;20327;-81
2023/12/25 22:32:45;;;;;;;11.63;5.93;;;7.50;99.90;;;;;;10458855;28;20199;-81
2023/12/25 22:37:48;;;;;;;7.70;3.97;;;7.00;99.90;;;;;;10458722;28;20261;-81
2023/12/25 22:42:52;;;;;;;13.97;6.00;;;6.70;99.90;;;;;;10462751;28;20662;-81
2023/12/25 22:47:54;;;;;;;19.30;7.73;;;6.40;99.90;;;;;;10453217;28;20251;-81
2023/12/25 22:53:03;;;;;;;13.27;7.27;;;6.10;99.90;;;;;;10458471;28;20226;-82
2023/12/25 22:58:05;;;;;;;9.90;5.77;;;5.80;99.90;;;;;;10455433;28;20265;-81
2023/12/25 23:03:08;;;;;;;17.60;7.40;;;5.40;99.90;;;;;;10481363;28;20680;-81
2023/12/25 23:08:11;;;;;;;17.00;8.07;;;5.20;99.90;;;;;;10434436;28;20327;-81
2023/12/25 23:13:13;;;;;;;13.37;8.53;;;5.00;99.90;;;;;;10461187;28;20226;-80
2023/12/25 23:18:16;;;;;;;14.97;8.23;;;4.80;99.90;;;;;;10444934;28;20237;-81
2023/12/25 23:23:18;;;;;;;20.90;10.87;;;4.80;99.90;;;;;;10470870;28;20236;-81
2023/12/25 23:28:21;;;;;;;20.77;10.60;;;4.60;99.90;;;;;;10460219;28;20277;-81
2023/12/25 23:33:24;;;;;;;20.27;10.00;;;4.70;99.90;;;;;;10452854;28;20233;-81
2023/12/25 23:38:26;;;;;;;21.30;9.20;;;4.90;99.90;;;;;;10453430;28;20296;-81
2023/12/25 23:43:29;;;;;;;15.30;9.33;;;4.90;99.90;;;;;;10447104;28;20226;-81
2023/12/25 23:48:31;;;;;;;27.90;12.73;;;5.00;99.90;;;;;;10448539;28;20350;-81
2023/12/25 23:53:34;;;;;;;17.13;11.63;;;5.10;99.90;;;;;;10449771;28;20238;-81
2023/12/25 23:58:36;;;;;;;23.40;12.50;;;5.10;99.90;;;;;;10455769;28;20218;-82
